sensor_id;sensor_type;location;lat;lon;timestamp;pressure;altitude;pressure_sealevel;temperature;humidity
71344;BME280;59146;43.850;25.948;2024-02-28T00:01:05;101562.31;;;5.75;95.18
71344;BME280;59146;43.850;25.948;2024-02-28T00:03:31;101446.81;;;5.29;94.77
71344;BME280;59146;43.850;25.948;2024-02-28T00:05:57;101639.94;;;6.53;94.53
71344;BME280;59146;43.850;25.948;2024-02-28T00:08:23;101630.38;;;6.55;94.42
71344;BME280;59146;43.850;25.948;2024-02-28T00:10:48;101639.00;;;6.55;93.94
71344;BME280;59146;43.850;25.948;2024-02-28T00:13:14;101567.06;;;5.94;95.23
71344;BME280;59146;43.850;25.948;2024-02-28T00:15:40;101620.31;;;6.43;95.73
71344;BME280;59146;43.850;25.948;2024-02-28T00:18:07;101562.16;;;6.16;95.25
71344;BME280;59146;43.850;25.948;2024-02-28T00:20:32;101579.28;;;6.23;94.80
71344;BME280;59146;43.850;25.948;2024-02-28T00:22:58;101636.09;;;6.67;94.24
71344;BME280;59146;43.850;25.948;2024-02-28T00:25:23;101648.31;;;6.62;93.92
71344;BME280;59146;43.850;25.948;2024-02-28T00:27:48;101640.97;;;6.47;95.58
71344;BME280;59146;43.850;25.948;2024-02-28T00:30:14;101608.41;;;6.34;96.32
71344;BME280;59146;43.850;25.948;2024-02-28T00:32:39;101556.84;;;6.22;95.39
71344;BME280;59146;43.850;25.948;2024-02-28T00:35:05;101643.53;;;6.79;94.62
71344;BME280;59146;43.850;25.948;2024-02-28T00:37:30;101637.13;;;6.92;93.50
71344;BME280;59146;43.850;25.948;2024-02-28T00:39:56;101564.38;;;6.31;93.04
71344;BME280;59146;43.850;25.948;2024-02-28T00:42:22;101553.56;;;6.14;94.48
71344;BME280;59146;43.850;25.948;2024-02-28T00:44:47;101574.91;;;6.25;93.81
71344;BME280;59146;43.850;25.948;2024-02-28T00:47:12;101645.06;;;6.54;94.81
71344;BME280;59146;43.850;25.948;2024-02-28T00:49:38;101632.16;;;6.53;94.72
71344;BME280;59146;43.850;25.948;2024-02-28T00:52:03;101582.47;;;6.34;93.80
71344;BME280;59146;43.850;25.948;2024-02-28T00:54:29;101631.63;;;6.72;93.31
71344;BME280;59146;43.850;25.948;2024-02-28T00:56:54;101640.50;;;6.64;92.97
71344;BME280;59146;43.850;25.948;2024-02-28T00:59:20;101579.81;;;6.02;93.81
71344;BME280;59146;43.850;25.948;2024-02-28T01:01:45;101585.81;;;6.04;94.86
71344;BME280;59146;43.850;25.948;2024-02-28T01:04:11;101615.59;;;6.23;94.96
71344;BME280;59146;43.850;25.948;2024-02-28T01:06:37;101630.03;;;6.34;94.71
71344;BME280;59146;43.850;25.948;2024-02-28T01:09:03;101631.13;;;6.26;95.23
71344;BME280;59146;43.850;25.948;2024-02-28T01:11:28;101627.25;;;6.07;96.09
71344;BME280;59146;43.850;25.948;2024-02-28T01:13:53;101586.00;;;5.59;97.96
71344;BME280;59146;43.850;25.948;2024-02-28T01:16:19;101564.38;;;5.60;98.32
71344;BME280;59146;43.850;25.948;2024-02-28T01:18:44;101574.34;;;5.77;97.77
71344;BME280;59146;43.850;25.948;2024-02-28T01:21:10;101622.59;;;6.21;96.88
71344;BME280;59146;43.850;25.948;2024-02-28T01:23:35;101631.84;;;6.31;95.63
71344;BME280;59146;43.850;25.948;2024-02-28T01:26:01;101608.75;;;6.20;94.80
71344;BME280;59146;43.850;25.948;2024-02-28T01:28:29;101603.47;;;5.90;95.69
71344;BME280;59146;43.850;25.948;2024-02-28T01:30:54;101610.69;;;5.76;97.01
71344;BME280;59146;43.850;25.948;2024-02-28T01:33:20;101563.16;;;5.40;97.35
71344;BME280;59146;43.850;25.948;2024-02-28T01:35:45;101573.28;;;5.49;97.15
71344;BME280;59146;43.850;25.948;2024-02-28T01:38:11;101629.03;;;5.67;96.94
71344;BME280;59146;43.850;25.948;2024-02-28T01:40:36;101627.81;;;5.44;98.84
71344;BME280;59146;43.850;25.948;2024-02-28T01:43:03;101546.16;;;4.87;100.00
71344;BME280;59146;43.850;25.948;2024-02-28T01:45:29;101628.59;;;5.48;100.00
71344;BME280;59146;43.850;25.948;2024-02-28T01:47:54;101621.06;;;5.37;99.63
71344;BME280;59146;43.850;25.948;2024-02-28T01:50:20;101651.75;;;5.55;99.44
71344;BME280;59146;43.850;25.948;2024-02-28T01:52:45;101637.28;;;5.45;98.95
71344;BME280;59146;43.850;25.948;2024-02-28T01:55:11;101628.56;;;5.10;100.00
71344;BME280;59146;43.850;25.948;2024-02-28T01:57:37;101572.63;;;4.58;100.00
71344;BME280;59146;43.850;25.948;2024-02-28T02:00:03;101638.09;;;5.08;100.00
71344;BME280;59146;43.850;25.948;2024-02-28T02:02:29;101557.84;;;4.65;100.00
71344;BME280;59146;43.850;25.948;2024-02-28T02:04:55;101593.34;;;5.01;100.00
71344;BME280;59146;43.850;25.948;2024-02-28T02:07:23;101579.03;;;4.82;100.00
71344;BME280;59146;43.850;25.948;2024-02-28T02:09:48;101559.94;;;4.45;100.00
71344;BME280;59146;43.850;25.948;2024-02-28T02:12:15;101583.69;;;4.66;100.00
71344;BME280;59146;43.850;25.948;2024-02-28T02:14:41;101516.13;;;4.36;100.00
71344;BME280;59146;43.850;25.948;2024-02-28T02:17:07;101615.59;;;5.10;100.00
71344;BME280;59146;43.850;25.948;2024-02-28T02:19:32;101628.88;;;5.34;100.00
71344;BME280;59146;43.850;25.948;2024-02-28T02:21:58;101585.47;;;5.06;100.00
71344;BME280;59146;43.850;25.948;2024-02-28T02:24:24;101582.25;;;4.96;100.00
71344;BME280;59146;43.850;25.948;2024-02-28T02:26:55;101623.59;;;4.99;100.00
71344;BME280;59146;43.850;25.948;2024-02-28T02:29:20;101557.72;;;4.69;100.00
71344;BME280;59146;43.850;25.948;2024-02-28T02:31:46;101664.16;;;5.41;100.00
71344;BME280;59146;43.850;25.948;2024-02-28T02:34:11;101646.13;;;5.37;100.00
71344;BME280;59146;43.850;25.948;2024-02-28T02:36:37;101669.84;;;5.17;100.00
71344;BME280;59146;43.850;25.948;2024-02-28T02:39:02;101646.94;;;4.98;100.00
71344;BME280;59146;43.850;25.948;2024-02-28T02:41:28;101674.69;;;5.32;100.00
71344;BME280;59146;43.850;25.948;2024-02-28T02:43:53;101671.41;;;5.24;100.00
71344;BME280;59146;43.850;25.948;2024-02-28T02:46:19;101667.88;;;5.30;100.00
71344;BME280;59146;43.850;25.948;2024-02-28T02:48:45;101685.00;;;5.35;100.00
71344;BME280;59146;43.850;25.948;2024-02-28T02:51:10;101594.91;;;4.67;100.00
71344;BME280;59146;43.850;25.948;2024-02-28T02:53:36;101669.50;;;4.91;100.00
71344;BME280;59146;43.850;25.948;2024-02-28T02:56:03;101607.19;;;4.56;100.00
71344;BME280;59146;43.850;25.948;2024-02-28T02:58:29;101598.44;;;4.61;100.00
71344;BME280;59146;43.850;25.948;2024-02-28T03:00:54;101675.03;;;5.17;100.00
71344;BME280;59146;43.850;25.948;2024-02-28T03:03:20;101670.00;;;5.10;100.00
71344;BME280;59146;43.850;25.948;2024-02-28T03:05:45;101598.16;;;4.31;100.00
71344;BME280;59146;43.850;25.948;2024-02-28T03:08:10;101683.72;;;4.69;100.00
71344;BME280;59146;43.850;25.948;2024-02-28T03:10:36;101703.03;;;4.97;100.00
71344;BME280;59146;43.850;25.948;2024-02-28T03:13:01;101693.47;;;5.01;100.00
71344;BME280;59146;43.850;25.948;2024-02-28T03:15:27;101688.41;;;4.95;100.00
71344;BME280;59146;43.850;25.948;2024-02-28T03:17:52;101626.13;;;4.58;100.00
71344;BME280;59146;43.850;25.948;2024-02-28T03:20:18;101632.00;;;4.19;100.00
71344;BME280;59146;43.850;25.948;2024-02-28T03:22:43;101705.75;;;4.41;100.00
71344;BME280;59146;43.850;25.948;2024-02-28T03:25:09;101710.28;;;4.28;100.00
71344;BME280;59146;43.850;25.948;2024-02-28T03:27:34;101714.22;;;4.52;100.00
71344;BME280;59146;43.850;25.948;2024-02-28T03:30:00;101657.16;;;4.08;100.00
71344;BME280;59146;43.850;25.948;2024-02-28T03:32:26;101710.97;;;4.38;100.00
71344;BME280;59146;43.850;25.948;2024-02-28T03:34:52;101662.56;;;3.92;100.00
71344;BME280;59146;43.850;25.948;2024-02-28T03:37:17;101727.75;;;4.14;100.00
71344;BME280;59146;43.850;25.948;2024-02-28T03:39:43;101717.72;;;3.91;100.00
71344;BME280;59146;43.850;25.948;2024-02-28T03:42:08;101715.19;;;3.88;100.00
71344;BME280;59146;43.850;25.948;2024-02-28T03:44:34;101719.34;;;3.98;100.00
71344;BME280;59146;43.850;25.948;2024-02-28T03:46:59;101679.97;;;3.80;100.00
71344;BME280;59146;43.850;25.948;2024-02-28T03:49:24;101656.19;;;3.57;100.00
71344;BME280;59146;43.850;25.948;2024-02-28T03:51:50;101703.25;;;3.78;100.00
71344;BME280;59146;43.850;25.948;2024-02-28T03:54:15;101644.47;;;3.32;100.00
71344;BME280;59146;43.850;25.948;2024-02-28T03:56:41;101744.66;;;3.77;100.00
71344;BME280;59146;43.850;25.948;2024-02-28T03:59:06;101584.16;;;2.69;100.00
71344;BME280;59146;43.850;25.948;2024-02-28T04:01:32;101672.78;;;3.38;100.00
71344;BME280;59146;43.850;25.948;2024-02-28T04:03:57;101653.16;;;3.26;100.00
71344;BME280;59146;43.850;25.948;2024-02-28T04:06:23;101732.56;;;3.77;100.00
71344;BME280;59146;43.850;25.948;2024-02-28T04:08:49;101753.91;;;3.90;100.00
71344;BME280;59146;43.850;25.948;2024-02-28T04:11:14;101699.34;;;3.49;100.00
71344;BME280;59146;43.850;25.948;2024-02-28T04:13:40;101755.69;;;3.89;100.00
71344;BME280;59146;43.850;25.948;2024-02-28T04:16:07;101712.06;;;3.65;100.00
71344;BME280;59146;43.850;25.948;2024-02-28T04:18:33;101737.69;;;3.80;100.00
71344;BME280;59146;43.850;25.948;2024-02-28T04:20:59;101681.50;;;3.29;100.00
71344;BME280;59146;43.850;25.948;2024-02-28T04:23:24;101749.16;;;3.58;100.00
71344;BME280;59146;43.850;25.948;2024-02-28T04:25:50;101657.56;;;3.18;100.00
71344;BME280;59146;43.850;25.948;2024-02-28T04:28:15;101748.06;;;3.77;100.00
71344;BME280;59146;43.850;25.948;2024-02-28T04:30:41;101709.59;;;3.55;100.00
71344;BME280;59146;43.850;25.948;2024-02-28T04:33:06;101759.13;;;3.88;100.00
71344;BME280;59146;43.850;25.948;2024-02-28T04:35:32;101769.53;;;3.82;100.00
71344;BME280;59146;43.850;25.948;2024-02-28T04:37:58;101731.41;;;3.31;100.00
71344;BME280;59146;43.850;25.948;2024-02-28T04:40:23;101760.00;;;3.16;100.00
71344;BME280;59146;43.850;25.948;2024-02-28T04:42:48;101770.16;;;3.30;100.00
71344;BME280;59146;43.850;25.948;2024-02-28T04:45:14;101689.56;;;3.02;100.00
71344;BME280;59146;43.850;25.948;2024-02-28T04:47:39;101777.63;;;3.55;100.00
71344;BME280;59146;43.850;25.948;2024-02-28T04:50:05;101713.50;;;3.17;100.00
71344;BME280;59146;43.850;25.948;2024-02-28T04:52:32;101732.03;;;2.74;100.00
71344;BME280;59146;43.850;25.948;2024-02-28T04:54:57;101783.56;;;2.80;100.00
71344;BME280;59146;43.850;25.948;2024-02-28T04:57:23;101751.94;;;2.60;100.00
71344;BME280;59146;43.850;25.948;2024-02-28T04:59:48;101725.25;;;2.61;100.00
71344;BME280;59146;43.850;25.948;2024-02-28T05:02:14;101785.16;;;2.97;100.00
71344;BME280;59146;43.850;25.948;2024-02-28T05:04:40;101715.97;;;2.40;100.00
71344;BME280;59146;43.850;25.948;2024-02-28T05:07:05;101771.69;;;2.64;100.00
71344;BME280;59146;43.850;25.948;2024-02-28T05:09:35;101776.78;;;2.67;100.00
71344;BME280;59146;43.850;25.948;2024-02-28T05:12:04;101792.31;;;2.64;100.00
71344;BME280;59146;43.850;25.948;2024-02-28T05:14:29;101788.94;;;2.53;100.00
71344;BME280;59146;43.850;25.948;2024-02-28T05:16:55;101770.16;;;2.38;100.00
71344;BME280;59146;43.850;25.948;2024-02-28T05:19:20;101777.06;;;2.29;100.00
71344;BME280;59146;43.850;25.948;2024-02-28T05:21:46;101737.66;;;2.12;100.00
71344;BME280;59146;43.850;25.948;2024-02-28T05:24:13;101733.44;;;2.02;100.00
71344;BME280;59146;43.850;25.948;2024-02-28T05:26:39;101747.13;;;2.11;100.00
71344;BME280;59146;43.850;25.948;2024-02-28T05:29:05;101804.59;;;2.25;100.00
71344;BME280;59146;43.850;25.948;2024-02-28T05:31:31;101760.97;;;1.97;100.00
71344;BME280;59146;43.850;25.948;2024-02-28T05:33:58;101761.81;;;1.97;100.00
71344;BME280;59146;43.850;25.948;2024-02-28T05:36:26;101804.66;;;2.16;100.00
71344;BME280;59146;43.850;25.948;2024-02-28T05:38:52;101729.25;;;1.81;100.00
71344;BME280;59146;43.850;25.948;2024-02-28T05:41:19;101809.63;;;2.43;100.00
71344;BME280;59146;43.850;25.948;2024-02-28T05:43:45;101816.47;;;2.51;100.00
71344;BME280;59146;43.850;25.948;2024-02-28T05:46:11;101789.06;;;2.37;100.00
71344;BME280;59146;43.850;25.948;2024-02-28T05:48:37;101750.47;;;2.25;100.00
71344;BME280;59146;43.850;25.948;2024-02-28T05:51:03;101765.19;;;2.08;100.00
71344;BME280;59146;43.850;25.948;2024-02-28T05:53:29;101751.41;;;2.12;100.00
71344;BME280;59146;43.850;25.948;2024-02-28T05:55:58;101756.47;;;2.27;100.00
71344;BME280;59146;43.850;25.948;2024-02-28T05:58:23;101771.81;;;2.47;100.00
71344;BME280;59146;43.850;25.948;2024-02-28T06:00:50;101837.75;;;2.81;100.00
71344;BME280;59146;43.850;25.948;2024-02-28T06:03:16;101600.66;;;1.51;100.00
71344;BME280;59146;43.850;25.948;2024-02-28T06:05:41;101760.59;;;2.51;100.00
71344;BME280;59146;43.850;25.948;2024-02-28T06:08:07;101836.75;;;2.99;100.00
71344;BME280;59146;43.850;25.948;2024-02-28T06:10:32;101768.16;;;2.74;100.00
71344;BME280;59146;43.850;25.948;2024-02-28T06:12:58;101757.97;;;2.56;100.00
71344;BME280;59146;43.850;25.948;2024-02-28T06:15:23;101854.59;;;3.23;100.00
71344;BME280;59146;43.850;25.948;2024-02-28T06:17:48;101802.03;;;3.27;100.00
71344;BME280;59146;43.850;25.948;2024-02-28T06:20:14;101841.41;;;3.52;100.00
71344;BME280;59146;43.850;25.948;2024-02-28T06:22:39;101856.09;;;3.44;100.00
71344;BME280;59146;43.850;25.948;2024-02-28T06:25:06;101809.13;;;3.10;100.00
71344;BME280;59146;43.850;25.948;2024-02-28T06:27:36;101821.63;;;3.49;100.00
71344;BME280;59146;43.850;25.948;2024-02-28T06:30:01;101776.03;;;3.44;100.00
71344;BME280;59146;43.850;25.948;2024-02-28T06:32:28;101843.38;;;4.03;100.00
71344;BME280;59146;43.850;25.948;2024-02-28T06:34:54;101789.34;;;3.85;100.00
71344;BME280;59146;43.850;25.948;2024-02-28T06:37:19;101835.59;;;4.04;100.00
71344;BME280;59146;43.850;25.948;2024-02-28T06:39:45;101845.06;;;4.07;100.00
71344;BME280;59146;43.850;25.948;2024-02-28T06:42:10;101833.84;;;4.07;100.00
71344;BME280;59146;43.850;25.948;2024-02-28T06:44:35;101865.94;;;4.56;100.00
71344;BME280;59146;43.850;25.948;2024-02-28T06:47:01;101833.22;;;4.50;100.00
71344;BME280;59146;43.850;25.948;2024-02-28T06:49:27;101817.94;;;4.35;100.00
71344;BME280;59146;43.850;25.948;2024-02-28T06:51:52;101809.00;;;3.95;100.00
71344;BME280;59146;43.850;25.948;2024-02-28T06:54:18;101798.41;;;4.16;100.00
71344;BME280;59146;43.850;25.948;2024-02-28T06:56:45;101799.75;;;4.41;100.00
71344;BME280;59146;43.850;25.948;2024-02-28T06:59:10;101811.03;;;4.36;100.00
71344;BME280;59146;43.850;25.948;2024-02-28T07:01:36;101879.72;;;4.58;100.00
71344;BME280;59146;43.850;25.948;2024-02-28T07:04:01;101864.78;;;4.14;100.00
71344;BME280;59146;43.850;25.948;2024-02-28T07:06:27;101852.78;;;4.09;100.00
71344;BME280;59146;43.850;25.948;2024-02-28T07:08:52;101756.63;;;3.82;100.00
71344;BME280;59146;43.850;25.948;2024-02-28T07:11:18;101851.44;;;4.44;100.00
71344;BME280;59146;43.850;25.948;2024-02-28T07:13:43;101795.75;;;4.19;100.00
71344;BME280;59146;43.850;25.948;2024-02-28T07:16:09;101869.38;;;4.58;100.00
71344;BME280;59146;43.850;25.948;2024-02-28T07:18:34;101882.16;;;4.68;100.00
71344;BME280;59146;43.850;25.948;2024-02-28T07:20:59;101836.19;;;4.26;100.00
71344;BME280;59146;43.850;25.948;2024-02-28T07:23:25;101870.53;;;4.37;100.00
71344;BME280;59146;43.850;25.948;2024-02-28T07:25:51;101684.38;;;3.06;100.00
71344;BME280;59146;43.850;25.948;2024-02-28T07:28:16;101894.66;;;4.36;100.00
71344;BME280;59146;43.850;25.948;2024-02-28T07:30:43;101812.72;;;3.73;100.00
71344;BME280;59146;43.850;25.948;2024-02-28T07:33:10;101865.53;;;4.24;100.00
71344;BME280;59146;43.850;25.948;2024-02-28T07:35:46;101813.22;;;4.03;100.00
71344;BME280;59146;43.850;25.948;2024-02-28T07:38:11;101848.38;;;4.15;100.00
71344;BME280;59146;43.850;25.948;2024-02-28T07:40:37;101881.78;;;4.32;100.00
71344;BME280;59146;43.850;25.948;2024-02-28T07:43:02;101775.53;;;3.86;100.00
71344;BME280;59146;43.850;25.948;2024-02-28T07:45:27;101789.75;;;4.19;100.00
71344;BME280;59146;43.850;25.948;2024-02-28T07:47:53;101888.75;;;4.89;100.00
71344;BME280;59146;43.850;25.948;2024-02-28T07:50:18;101817.16;;;4.30;100.00
71344;BME280;59146;43.850;25.948;2024-02-28T07:52:44;101793.81;;;4.35;100.00
71344;BME280;59146;43.850;25.948;2024-02-28T07:55:10;101876.25;;;4.59;100.00
71344;BME280;59146;43.850;25.948;2024-02-28T07:57:35;101802.69;;;4.16;100.00
71344;BME280;59146;43.850;25.948;2024-02-28T08:00:01;101822.78;;;4.58;100.00
71344;BME280;59146;43.850;25.948;2024-02-28T08:02:26;101838.81;;;4.81;100.00
71344;BME280;59146;43.850;25.948;2024-02-28T08:04:52;101848.84;;;4.46;100.00
71344;BME280;59146;43.850;25.948;2024-02-28T08:07:17;101798.41;;;4.16;100.00
71344;BME280;59146;43.850;25.948;2024-02-28T08:09:43;101841.53;;;4.72;100.00
71344;BME280;59146;43.850;25.948;2024-02-28T08:12:08;101867.78;;;5.04;100.00
71344;BME280;59146;43.850;25.948;2024-02-28T08:14:33;101878.66;;;5.24;100.00
71344;BME280;59146;43.850;25.948;2024-02-28T08:16:59;101655.94;;;3.73;100.00
71344;BME280;59146;43.850;25.948;2024-02-28T08:19:24;101873.06;;;4.97;100.00
71344;BME280;59146;43.850;25.948;2024-02-28T08:21:50;101802.78;;;4.67;100.00
71344;BME280;59146;43.850;25.948;2024-02-28T08:24:15;101759.09;;;4.49;100.00
71344;BME280;59146;43.850;25.948;2024-02-28T08:26:41;101873.78;;;5.56;100.00
71344;BME280;59146;43.850;25.948;2024-02-28T08:29:07;101877.00;;;5.69;100.00
71344;BME280;59146;43.850;25.948;2024-02-28T08:31:32;101857.66;;;5.39;100.00
71344;BME280;59146;43.850;25.948;2024-02-28T08:33:58;101795.75;;;5.24;100.00
71344;BME280;59146;43.850;25.948;2024-02-28T08:36:23;101849.38;;;5.67;100.00
71344;BME280;59146;43.850;25.948;2024-02-28T08:38:49;101875.59;;;5.97;100.00
71344;BME280;59146;43.850;25.948;2024-02-28T08:41:17;101833.72;;;5.73;100.00
71344;BME280;59146;43.850;25.948;2024-02-28T08:43:42;101793.97;;;5.72;100.00
71344;BME280;59146;43.850;25.948;2024-02-28T08:46:08;101862.59;;;6.40;100.00
71344;BME280;59146;43.850;25.948;2024-02-28T08:48:33;101815.13;;;6.35;100.00
71344;BME280;59146;43.850;25.948;2024-02-28T08:50:59;101854.34;;;6.61;100.00
71344;BME280;59146;43.850;25.948;2024-02-28T08:53:24;101762.81;;;6.15;100.00
71344;BME280;59146;43.850;25.948;2024-02-28T08:55:50;101889.50;;;6.36;100.00
71344;BME280;59146;43.850;25.948;2024-02-28T08:58:16;101882.34;;;6.46;100.00
71344;BME280;59146;43.850;25.948;2024-02-28T09:00:41;101887.31;;;6.56;100.00
71344;BME280;59146;43.850;25.948;2024-02-28T09:03:07;101833.50;;;6.26;100.00
71344;BME280;59146;43.850;25.948;2024-02-28T09:05:32;101775.31;;;5.98;100.00
71344;BME280;59146;43.850;25.948;2024-02-28T09:07:58;101872.88;;;6.45;100.00
71344;BME280;59146;43.850;25.948;2024-02-28T09:10:23;101876.72;;;6.65;100.00
71344;BME280;59146;43.850;25.948;2024-02-28T09:12:52;101833.50;;;6.63;100.00
71344;BME280;59146;43.850;25.948;2024-02-28T09:15:18;101814.16;;;6.76;100.00
71344;BME280;59146;43.850;25.948;2024-02-28T09:17:43;101873.91;;;7.11;100.00
71344;BME280;59146;43.850;25.948;2024-02-28T09:20:09;101838.66;;;6.64;100.00
71344;BME280;59146;43.850;25.948;2024-02-28T09:22:35;101855.41;;;6.88;100.00
71344;BME280;59146;43.850;25.948;2024-02-28T09:25:01;101800.44;;;7.04;100.00
71344;BME280;59146;43.850;25.948;2024-02-28T09:27:30;101878.78;;;7.57;100.00
71344;BME280;59146;43.850;25.948;2024-02-28T09:29:55;101849.53;;;7.49;100.00
71344;BME280;59146;43.850;25.948;2024-02-28T09:32:21;101835.69;;;7.16;100.00
71344;BME280;59146;43.850;25.948;2024-02-28T09:34:46;101851.81;;;7.27;100.00
71344;BME280;59146;43.850;25.948;2024-02-28T09:37:12;101818.72;;;7.34;100.00
71344;BME280;59146;43.850;25.948;2024-02-28T09:39:38;101883.03;;;7.91;100.00
71344;BME280;59146;43.850;25.948;2024-02-28T09:42:06;101776.22;;;7.36;100.00
71344;BME280;59146;43.850;25.948;2024-02-28T09:44:31;101893.34;;;7.94;100.00
71344;BME280;59146;43.850;25.948;2024-02-28T09:46:57;101899.50;;;8.21;100.00
71344;BME280;59146;43.850;25.948;2024-02-28T09:49:24;101894.41;;;8.76;100.00
71344;BME280;59146;43.850;25.948;2024-02-28T09:51:52;101831.69;;;8.82;97.22
71344;BME280;59146;43.850;25.948;2024-02-28T09:54:18;101882.50;;;9.22;95.64
71344;BME280;59146;43.850;25.948;2024-02-28T09:56:43;101829.84;;;9.12;92.59
71344;BME280;59146;43.850;25.948;2024-02-28T09:59:10;101896.25;;;9.27;94.87
71344;BME280;59146;43.850;25.948;2024-02-28T10:01:42;101850.19;;;9.27;94.39
71344;BME280;59146;43.850;25.948;2024-02-28T10:04:09;101882.91;;;9.10;95.19
71344;BME280;59146;43.850;25.948;2024-02-28T10:06:36;101766.75;;;8.76;96.20
71344;BME280;59146;43.850;25.948;2024-02-28T10:09:01;101856.50;;;9.20;96.83
71344;BME280;59146;43.850;25.948;2024-02-28T10:11:27;101867.63;;;9.25;95.94
71344;BME280;59146;43.850;25.948;2024-02-28T10:13:54;101815.25;;;8.80;98.17
71344;BME280;59146;43.850;25.948;2024-02-28T10:16:20;101861.88;;;8.88;98.11
71344;BME280;59146;43.850;25.948;2024-02-28T10:18:46;101757.72;;;8.34;99.64
71344;BME280;59146;43.850;25.948;2024-02-28T10:21:12;101730.09;;;8.56;98.19
71344;BME280;59146;43.850;25.948;2024-02-28T10:23:41;101846.81;;;9.73;95.61
71344;BME280;59146;43.850;25.948;2024-02-28T10:26:09;101778.69;;;9.33;91.98
71344;BME280;59146;43.850;25.948;2024-02-28T10:28:38;101839.97;;;9.46;94.25
71344;BME280;59146;43.850;25.948;2024-02-28T10:31:08;101841.50;;;9.51;95.08
71344;BME280;59146;43.850;25.948;2024-02-28T10:33:33;101756.69;;;9.17;93.99
71344;BME280;59146;43.850;25.948;2024-02-28T10:36:02;101770.91;;;9.56;93.33
71344;BME280;59146;43.850;25.948;2024-02-28T10:38:28;101809.38;;;9.74;91.61
71344;BME280;59146;43.850;25.948;2024-02-28T10:40:53;101797.00;;;9.56;92.80
71344;BME280;59146;43.850;25.948;2024-02-28T10:43:19;101759.78;;;9.51;92.45
71344;BME280;59146;43.850;25.948;2024-02-28T10:45:45;101799.38;;;10.08;91.59
71344;BME280;59146;43.850;25.948;2024-02-28T10:48:14;101806.25;;;10.34;89.92
71344;BME280;59146;43.850;25.948;2024-02-28T10:50:39;101808.50;;;10.21;89.61
71344;BME280;59146;43.850;25.948;2024-02-28T10:53:12;101793.38;;;9.83;92.23
71344;BME280;59146;43.850;25.948;2024-02-28T10:55:40;101752.97;;;9.70;92.65
71344;BME280;59146;43.850;25.948;2024-02-28T10:58:10;101684.84;;;9.56;91.36
71344;BME280;59146;43.850;25.948;2024-02-28T11:00:36;101768.97;;;10.30;90.11
71344;BME280;59146;43.850;25.948;2024-02-28T11:03:04;101782.81;;;10.09;89.15
71344;BME280;59146;43.850;25.948;2024-02-28T11:05:42;101729.56;;;9.69;91.47
71344;BME280;59146;43.850;25.948;2024-02-28T11:08:19;101743.16;;;10.00;91.17
71344;BME280;59146;43.850;25.948;2024-02-28T11:10:45;101752.78;;;10.21;89.64
71344;BME280;59146;43.850;25.948;2024-02-28T11:13:23;101732.63;;;10.24;88.70
71344;BME280;59146;43.850;25.948;2024-02-28T11:15:48;101761.19;;;10.51;89.04
71344;BME280;59146;43.850;25.948;2024-02-28T11:18:13;101765.13;;;10.61;87.81
71344;BME280;59146;43.850;25.948;2024-02-28T11:20:39;101777.13;;;10.65;88.59
71344;BME280;59146;43.850;25.948;2024-02-28T11:23:07;101748.28;;;10.68;88.32
71344;BME280;59146;43.850;25.948;2024-02-28T11:25:34;101712.03;;;10.80;86.43
71344;BME280;59146;43.850;25.948;2024-02-28T11:28:00;101680.34;;;10.68;85.42
71344;BME280;59146;43.850;25.948;2024-02-28T11:30:25;101747.41;;;10.89;87.10
71344;BME280;59146;43.850;25.948;2024-02-28T11:32:54;101759.69;;;10.87;86.61
71344;BME280;59146;43.850;25.948;2024-02-28T11:35:20;101752.03;;;11.02;85.55
71344;BME280;59146;43.850;25.948;2024-02-28T11:37:46;101624.66;;;10.25;85.53
71344;BME280;59146;43.850;25.948;2024-02-28T11:40:13;101677.53;;;10.72;85.98
71344;BME280;59146;43.850;25.948;2024-02-28T11:42:38;101753.19;;;11.54;84.27
71344;BME280;59146;43.850;25.948;2024-02-28T11:45:10;101737.31;;;11.20;84.41
71344;BME280;59146;43.850;25.948;2024-02-28T11:47:35;101743.91;;;11.08;85.53
71344;BME280;59146;43.850;25.948;2024-02-28T11:50:02;101713.22;;;11.32;84.57
71344;BME280;59146;43.850;25.948;2024-02-28T11:52:30;101692.03;;;11.38;82.50
71344;BME280;59146;43.850;25.948;2024-02-28T11:54:55;101725.00;;;11.61;81.63
71344;BME280;59146;43.850;25.948;2024-02-28T11:57:21;101675.38;;;10.82;83.99
71344;BME280;59146;43.850;25.948;2024-02-28T11:59:46;101741.25;;;11.49;84.00
71344;BME280;59146;43.850;25.948;2024-02-28T12:02:13;101724.31;;;11.94;80.74
71344;BME280;59146;43.850;25.948;2024-02-28T12:04:42;101706.56;;;11.82;79.76
71344;BME280;59146;43.850;25.948;2024-02-28T12:07:08;101709.09;;;12.03;80.83
71344;BME280;59146;43.850;25.948;2024-02-28T12:09:34;101701.06;;;11.88;79.85
71344;BME280;59146;43.850;25.948;2024-02-28T12:12:03;101652.22;;;11.50;81.27
71344;BME280;59146;43.850;25.948;2024-02-28T12:14:33;101658.81;;;11.77;79.74
71344;BME280;59146;43.850;25.948;2024-02-28T12:17:01;101653.56;;;11.77;79.98
71344;BME280;59146;43.850;25.948;2024-02-28T12:19:28;101671.91;;;11.77;79.31
71344;BME280;59146;43.850;25.948;2024-02-28T12:21:54;101690.75;;;11.85;80.84
71344;BME280;59146;43.850;25.948;2024-02-28T12:24:20;101626.63;;;11.38;81.72
71344;BME280;59146;43.850;25.948;2024-02-28T12:26:46;101652.09;;;11.90;81.03
71344;BME280;59146;43.850;25.948;2024-02-28T12:29:11;101639.03;;;12.08;79.29
71344;BME280;59146;43.850;25.948;2024-02-28T12:31:37;101690.09;;;12.69;77.65
71344;BME280;59146;43.850;25.948;2024-02-28T12:34:02;101698.22;;;12.97;75.72
71344;BME280;59146;43.850;25.948;2024-02-28T12:36:31;101634.28;;;12.33;76.50